createdAt,value
2017-10-30T00:02:00.629Z,7.70
2017-10-30T00:04:37.792Z,7.70
2017-10-30T00:07:28.390Z,7.60
2017-10-30T00:09:57.058Z,7.60
2017-10-30T00:12:23.121Z,7.60
2017-10-30T00:14:49.818Z,7.60
2017-10-30T00:17:22.450Z,7.60
2017-10-30T00:19:48.551Z,7.60
2017-10-30T00:22:14.653Z,7.60
2017-10-30T00:24:51.669Z,7.50
2017-10-30T00:27:43.345Z,7.50
2017-10-30T00:30:22.244Z,7.50
2017-10-30T00:32:51.954Z,7.50
2017-10-30T00:35:24.298Z,7.50
2017-10-30T00:37:51.109Z,7.40
2017-10-30T00:40:18.121Z,7.40
2017-10-30T00:42:46.342Z,7.40
2017-10-30T00:45:29.429Z,7.40
2017-10-30T00:48:06.374Z,7.40
2017-10-30T00:50:37.918Z,7.40
2017-10-30T00:53:09.410Z,7.40
2017-10-30T00:58:31.355Z,7.40
2017-10-30T01:00:57.357Z,7.30
2017-10-30T01:03:35.462Z,7.30
2017-10-30T01:06:13.164Z,7.40
2017-10-30T01:08:39.895Z,7.30
2017-10-30T01:11:23.042Z,7.30
2017-10-30T01:13:50.138Z,7.30
2017-10-30T01:16:17.110Z,7.30
2017-10-30T01:18:43.193Z,7.30
2017-10-30T01:21:18.000Z,7.40
2017-10-30T01:23:45.963Z,7.30
2017-10-30T01:26:12.797Z,7.40
2017-10-30T01:28:41.581Z,7.40
2017-10-30T01:31:11.302Z,7.30
2017-10-30T01:33:40.806Z,7.40
2017-10-30T01:36:10.326Z,7.40
2017-10-30T01:38:37.335Z,7.30
2017-10-30T01:41:03.266Z,7.30
2017-10-30T01:43:29.199Z,7.20
2017-10-30T01:46:00.378Z,7.20
2017-10-30T01:48:39.945Z,7.20
2017-10-30T01:51:05.861Z,7.20
2017-10-30T01:53:44.972Z,7.10
2017-10-30T01:56:29.755Z,7.10
2017-10-30T01:59:04.170Z,7.10
2017-10-30T02:01:31.887Z,7.10
2017-10-30T02:04:07.893Z,7.00
2017-10-30T02:06:41.474Z,7.00
2017-10-30T02:09:08.210Z,7.00
2017-10-30T02:11:34.217Z,7.00
2017-10-30T02:14:00.133Z,7.00
2017-10-30T02:16:27.115Z,6.90
2017-10-30T02:18:53.154Z,6.90
2017-10-30T02:24:12.833Z,6.90
2017-10-30T02:26:38.853Z,6.80
2017-10-30T02:29:13.818Z,6.80
2017-10-30T02:31:42.607Z,6.80
2017-10-30T02:34:09.311Z,6.80
2017-10-30T02:36:36.262Z,6.80
2017-10-30T02:39:07.377Z,6.80
2017-10-30T02:41:36.834Z,6.70
2017-10-30T02:44:02.867Z,6.70
2017-10-30T02:46:28.886Z,6.70
2017-10-30T02:48:59.006Z,6.60
2017-10-30T02:51:29.432Z,6.60
2017-10-30T02:54:01.950Z,6.60
2017-10-30T02:56:32.349Z,6.60
2017-10-30T02:58:58.370Z,6.60
2017-10-30T03:01:36.189Z,6.50
2017-10-30T03:04:03.118Z,6.50
2017-10-30T03:06:29.081Z,6.60
2017-10-30T03:08:55.785Z,6.50
2017-10-30T03:11:23.821Z,6.50
2017-10-30T03:14:01.689Z,6.50
2017-10-30T03:16:32.143Z,6.50
2017-10-30T03:18:58.778Z,6.50
2017-10-30T03:21:27.546Z,6.50
2017-10-30T03:23:53.454Z,6.50
2017-10-30T03:26:23.077Z,6.50
2017-10-30T03:28:51.045Z,6.50
2017-10-30T03:31:24.793Z,6.50
2017-10-30T03:34:03.706Z,6.50
2017-10-30T03:36:36.855Z,6.50
2017-10-30T03:39:02.775Z,6.40
2017-10-30T03:41:46.886Z,6.40
2017-10-30T03:44:34.551Z,6.40
2017-10-30T03:47:01.526Z,6.40
2017-10-30T03:49:40.887Z,6.40
2017-10-30T03:52:16.310Z,6.30
2017-10-30T03:54:42.981Z,6.30
2017-10-30T03:57:15.870Z,6.30
2017-10-30T03:59:48.241Z,6.30
2017-10-30T04:02:15.246Z,6.30
2017-10-30T04:04:41.285Z,6.30
2017-10-30T04:07:14.590Z,6.30
2017-10-30T04:09:46.343Z,6.20
2017-10-30T04:12:24.865Z,6.20
2017-10-30T04:15:03.276Z,6.20
2017-10-30T04:17:29.286Z,6.20
2017-10-30T04:20:13.079Z,6.20
2017-10-30T04:22:49.834Z,6.20
2017-10-30T04:25:16.490Z,6.30
2017-10-30T04:27:54.765Z,6.20
2017-10-30T04:30:34.130Z,6.20
2017-10-30T04:33:12.814Z,6.30
2017-10-30T04:35:40.769Z,6.30
2017-10-30T04:38:24.450Z,6.30
2017-10-30T04:40:58.046Z,6.30
2017-10-30T04:43:26.794Z,6.30
2017-10-30T04:46:05.983Z,6.20
2017-10-30T04:48:31.962Z,6.20
2017-10-30T04:51:22.227Z,6.20
2017-10-30T04:54:00.174Z,6.20
2017-10-30T04:56:31.649Z,6.20
2017-10-30T04:59:09.406Z,6.20
2017-10-30T05:01:46.188Z,6.30
2017-10-30T05:04:17.726Z,6.30
2017-10-30T05:06:44.661Z,6.20
2017-10-30T05:09:18.712Z,6.30
2017-10-30T05:11:53.339Z,6.30
2017-10-30T05:14:39.745Z,6.30
2017-10-30T05:17:17.548Z,6.30
2017-10-30T05:19:45.487Z,6.30
2017-10-30T05:22:12.467Z,6.30
2017-10-30T05:24:38.419Z,6.30
2017-10-30T05:27:06.455Z,6.20
2017-10-30T05:29:43.734Z,6.20
2017-10-30T05:32:12.434Z,6.20
2017-10-30T05:34:39.198Z,6.20
2017-10-30T05:37:06.218Z,6.20
2017-10-30T05:39:32.243Z,6.30
2017-10-30T05:41:59.174Z,6.30
2017-10-30T05:44:30.475Z,6.30
2017-10-30T05:47:03.337Z,6.30
2017-10-30T05:49:31.105Z,6.30
2017-10-30T05:51:59.061Z,6.30
2017-10-30T05:54:37.794Z,6.30
2017-10-30T05:57:05.747Z,6.40
2017-10-30T05:59:32.732Z,6.40
2017-10-30T06:02:18.655Z,6.60
2017-10-30T06:04:57.166Z,6.60
2017-10-30T06:07:35.950Z,6.70
2017-10-30T06:10:13.538Z,6.90
2017-10-30T06:12:43.751Z,7.00
2017-10-30T06:15:16.191Z,7.00
2017-10-30T06:17:57.946Z,7.10
2017-10-30T06:20:25.914Z,7.10
2017-10-30T06:22:52.631Z,7.30
2017-10-30T06:25:18.572Z,7.20
2017-10-30T06:28:01.101Z,7.30
2017-10-30T06:30:41.863Z,7.30
2017-10-30T06:33:18.521Z,7.30
2017-10-30T06:35:46.287Z,7.30
2017-10-30T06:38:13.023Z,7.30
2017-10-30T06:40:39.683Z,7.30
2017-10-30T06:43:09.681Z,7.20
2017-10-30T06:45:35.702Z,7.20
2017-10-30T06:48:01.753Z,7.20
2017-10-30T06:50:35.278Z,7.20
2017-10-30T06:53:04.862Z,7.20
2017-10-30T06:55:40.114Z,7.20
2017-10-30T06:58:08.183Z,7.20
2017-10-30T07:00:35.149Z,7.20
2017-10-30T07:03:01.072Z,7.20
2017-10-30T07:05:33.206Z,7.30
2017-10-30T07:07:59.267Z,7.20
2017-10-30T07:10:30.808Z,7.40
2017-10-30T07:12:57.752Z,7.40
2017-10-30T07:15:23.777Z,7.40
2017-10-30T07:17:53.901Z,7.50
2017-10-30T07:20:21.908Z,7.50
2017-10-30T07:23:10.185Z,7.50
2017-10-30T07:25:36.142Z,7.50
2017-10-30T07:28:06.782Z,7.50
2017-10-30T07:30:34.725Z,7.50
2017-10-30T07:33:01.703Z,7.50
2017-10-30T07:35:31.317Z,7.50
2017-10-30T07:37:57.698Z,7.60
2017-10-30T07:40:25.725Z,7.70
2017-10-30T07:42:58.728Z,7.80
2017-10-30T07:45:25.448Z,8.00
2017-10-30T07:47:53.401Z,8.00
2017-10-30T07:50:24.051Z,8.10
2017-10-30T07:52:50.029Z,8.20
2017-10-30T07:55:23.905Z,8.30
2017-10-30T07:57:51.191Z,8.50
2017-10-30T08:00:22.990Z,8.60
2017-10-30T08:02:54.775Z,8.80
2017-10-30T08:05:20.782Z,8.90
2017-10-30T08:07:52.581Z,9.00
2017-10-30T08:10:23.093Z,9.30
2017-10-30T08:12:49.137Z,9.20
2017-10-30T08:15:15.048Z,9.30
2017-10-30T08:17:44.754Z,9.40
2017-10-30T08:20:21.497Z,9.40
2017-10-30T08:22:48.498Z,9.60
2017-10-30T08:25:14.514Z,9.70
2017-10-30T08:27:53.298Z,9.90
2017-10-30T08:30:22.941Z,9.90
2017-10-30T08:32:48.857Z,10.00
2017-10-30T08:35:18.914Z,10.00
2017-10-30T08:37:58.346Z,10.00
2017-10-30T08:40:24.350Z,10.00
2017-10-30T08:42:50.277Z,10.00
2017-10-30T08:45:16.236Z,9.90
2017-10-30T08:47:42.246Z,10.00
2017-10-30T08:50:11.776Z,10.00
2017-10-30T08:52:38.522Z,10.10
2017-10-30T08:55:15.608Z,10.10
2017-10-30T08:57:43.351Z,10.00
2017-10-30T09:00:10.316Z,10.00
2017-10-30T09:02:38.071Z,10.00
2017-10-30T09:05:04.095Z,10.00
2017-10-30T09:07:31.053Z,10.10
2017-10-30T09:09:56.966Z,10.20
2017-10-30T09:12:22.906Z,10.40
2017-10-30T09:14:50.882Z,10.60
2017-10-30T09:17:29.956Z,10.80
2017-10-30T09:19:56.957Z,10.90
2017-10-30T09:22:23.040Z,11.10
2017-10-30T09:24:56.711Z,11.20
2017-10-30T09:27:24.669Z,11.30
2017-10-30T09:29:53.862Z,11.40
2017-10-30T09:32:23.677Z,11.60
2017-10-30T09:34:49.608Z,11.60
2017-10-30T09:37:17.591Z,11.70
2017-10-30T09:39:50.290Z,11.70
2017-10-30T09:42:17.001Z,11.70
2017-10-30T09:44:44.978Z,11.70
2017-10-30T09:47:11.994Z,11.70
2017-10-30T09:49:37.983Z,11.80
2017-10-30T09:52:06.658Z,12.10
2017-10-30T09:54:47.770Z,12.00
2017-10-30T09:57:16.514Z,12.20
2017-10-30T09:59:49.631Z,12.20
2017-10-30T10:02:18.289Z,12.30
2017-10-30T10:04:50.919Z,12.30
2017-10-30T10:07:23.357Z,12.50
2017-10-30T10:09:49.263Z,12.50
2017-10-30T10:12:15.206Z,12.50
2017-10-30T10:14:41.108Z,12.50
2017-10-30T10:17:07.073Z,12.70
2017-10-30T10:19:33.999Z,12.70
2017-10-30T10:21:59.934Z,12.80
2017-10-30T10:24:34.519Z,12.90
2017-10-30T10:27:00.505Z,13.00
2017-10-30T10:29:26.513Z,13.10
2017-10-30T10:31:54.494Z,13.10
2017-10-30T10:34:21.450Z,13.10
2017-10-30T10:37:01.550Z,13.20
2017-10-30T10:39:27.517Z,13.20
2017-10-30T10:41:58.865Z,13.20
2017-10-30T10:44:24.811Z,13.40
2017-10-30T10:46:55.425Z,13.50
2017-10-30T10:49:29.889Z,13.60
2017-10-30T10:52:04.334Z,13.60
2017-10-30T10:54:32.351Z,13.60
2017-10-30T10:56:58.302Z,13.60
2017-10-30T10:59:28.138Z,13.70
2017-10-30T11:01:58.542Z,14.40
2017-10-30T11:04:29.622Z,14.40
2017-10-30T11:06:55.593Z,14.80
2017-10-30T11:09:28.618Z,15.10
2017-10-30T11:11:56.384Z,15.50
2017-10-30T11:14:23.118Z,15.60
2017-10-30T11:16:49.139Z,15.60
2017-10-30T11:19:15.186Z,15.80
2017-10-30T11:21:43.159Z,16.00
2017-10-30T11:24:31.871Z,16.00
2017-10-30T11:26:59.954Z,15.90
2017-10-30T11:29:29.266Z,15.80
2017-10-30T11:31:58.883Z,15.70
2017-10-30T11:34:24.913Z,15.70
2017-10-30T11:36:50.978Z,15.60
2017-10-30T11:39:21.469Z,15.40
2017-10-30T11:41:47.409Z,15.40
2017-10-30T11:44:13.454Z,15.30
2017-10-30T11:46:39.411Z,15.30
2017-10-30T11:49:05.348Z,15.20
2017-10-30T11:51:33.556Z,15.20
2017-10-30T11:54:03.938Z,15.20
2017-10-30T11:56:29.846Z,15.30
2017-10-30T11:58:56.574Z,15.70
2017-10-30T12:01:27.523Z,15.70
2017-10-30T12:03:54.462Z,15.80
2017-10-30T12:06:20.386Z,16.00
2017-10-30T12:08:50.121Z,16.00
2017-10-30T12:11:18.786Z,16.00
2017-10-30T12:13:48.306Z,16.00
2017-10-30T12:16:17.934Z,16.00
2017-10-30T12:18:46.710Z,15.90
2017-10-30T12:21:18.674Z,15.90
2017-10-30T12:23:44.689Z,15.90
2017-10-30T12:26:11.657Z,15.80
2017-10-30T12:28:38.605Z,15.90
2017-10-30T12:31:12.529Z,16.00
2017-10-30T12:33:45.302Z,16.10
2017-10-30T12:39:08.669Z,16.10
2017-10-30T12:41:36.637Z,16.00
2017-10-30T12:44:03.592Z,15.90
2017-10-30T12:46:29.648Z,15.80
2017-10-30T12:49:08.658Z,16.10
2017-10-30T12:51:34.674Z,16.10
2017-10-30T12:54:01.613Z,16.20
2017-10-30T12:56:31.218Z,16.30
2017-10-30T12:58:57.166Z,16.50
2017-10-30T13:01:28.086Z,16.60
2017-10-30T13:03:54.026Z,16.70
2017-10-30T13:06:19.951Z,16.80
2017-10-30T13:08:47.945Z,16.80
2017-10-30T13:11:22.927Z,16.90
2017-10-30T13:14:02.238Z,16.90
2017-10-30T13:16:32.047Z,16.90
2017-10-30T13:18:59.788Z,16.60
2017-10-30T13:21:25.825Z,16.60
2017-10-30T13:23:53.589Z,16.30
2017-10-30T13:26:19.590Z,16.30
2017-10-30T13:28:52.514Z,16.10
2017-10-30T13:31:29.967Z,15.80
2017-10-30T13:33:57.967Z,15.80
2017-10-30T13:36:23.973Z,15.70
2017-10-30T13:38:49.974Z,15.60
2017-10-30T13:41:19.098Z,15.50
2017-10-30T13:43:51.422Z,15.40
2017-10-30T13:46:19.141Z,15.10
2017-10-30T13:48:45.106Z,15.10
2017-10-30T13:51:11.827Z,14.80
2017-10-30T13:53:37.862Z,14.80
2017-10-30T13:56:06.688Z,14.70
2017-10-30T13:58:33.154Z,14.60
2017-10-30T14:01:03.406Z,14.50
2017-10-30T14:03:31.393Z,14.40
2017-10-30T14:05:58.342Z,14.30
2017-10-30T14:08:29.985Z,14.30
2017-10-30T14:10:56.030Z,14.10
2017-10-30T14:13:22.020Z,14.00
2017-10-30T14:15:50.030Z,13.90
2017-10-30T14:18:15.933Z,13.80
2017-10-30T14:20:55.543Z,13.70
2017-10-30T14:23:25.421Z,13.70
2017-10-30T14:25:51.346Z,13.60
2017-10-30T14:28:17.375Z,13.60
2017-10-30T14:30:43.698Z,13.60
2017-10-30T14:33:11.156Z,13.60
2017-10-30T14:35:39.961Z,13.50
2017-10-30T14:38:05.881Z,13.50
2017-10-30T14:40:31.810Z,13.50
2017-10-30T14:42:57.734Z,13.60
2017-10-30T14:45:25.445Z,13.50
2017-10-30T14:47:51.530Z,13.50
2017-10-30T14:50:18.952Z,13.50
2017-10-30T14:52:44.914Z,13.40
2017-10-30T14:55:10.865Z,13.30
2017-10-30T14:57:38.834Z,13.20
2017-10-30T15:00:05.777Z,13.20
2017-10-30T15:02:31.700Z,13.10
2017-10-30T15:04:57.625Z,13.00
2017-10-30T15:07:29.270Z,12.90
2017-10-30T15:09:55.911Z,12.70
2017-10-30T15:12:29.133Z,12.70
2017-10-30T15:14:59.647Z,12.60
2017-10-30T15:17:47.606Z,12.50
2017-10-30T15:20:14.549Z,12.40
2017-10-30T15:22:42.318Z,12.20
2017-10-30T15:25:15.010Z,12.20
2017-10-30T15:27:45.530Z,12.10
2017-10-30T15:30:11.450Z,12.10
2017-10-30T15:32:40.861Z,12.10
2017-10-30T15:35:06.773Z,12.00
2017-10-30T15:37:32.675Z,12.00
2017-10-30T15:40:03.449Z,11.90
2017-10-30T15:42:29.375Z,11.90
2017-10-30T15:44:56.343Z,11.80
2017-10-30T15:47:23.261Z,11.70
2017-10-30T15:49:52.390Z,11.70
2017-10-30T15:52:19.326Z,11.60
2017-10-30T15:54:54.117Z,11.60
2017-10-30T15:57:20.034Z,11.60
2017-10-30T15:59:50.012Z,11.50
2017-10-30T16:02:16.034Z,11.40
2017-10-30T16:04:42.087Z,11.40
2017-10-30T16:07:19.262Z,11.30
2017-10-30T16:10:03.020Z,11.30
2017-10-30T16:12:33.511Z,11.10
2017-10-30T16:15:02.871Z,11.10
2017-10-30T16:17:30.793Z,11.10
2017-10-30T16:19:56.826Z,11.10
2017-10-30T16:22:26.526Z,11.10
2017-10-30T16:25:05.099Z,11.00
2017-10-30T16:27:33.029Z,11.00
2017-10-30T16:29:59.045Z,11.00
2017-10-30T16:32:26.016Z,11.00
2017-10-30T16:34:51.917Z,10.90
2017-10-30T16:37:21.761Z,10.90
2017-10-30T16:39:51.450Z,10.90
2017-10-30T16:42:17.399Z,10.80
2017-10-30T16:44:56.221Z,10.80
2017-10-30T16:47:23.169Z,10.80
2017-10-30T16:49:49.205Z,10.80
2017-10-30T16:52:15.923Z,10.80
2017-10-30T16:54:41.842Z,10.80
2017-10-30T16:57:07.789Z,10.80
2017-10-30T16:59:35.793Z,10.80
2017-10-30T17:02:04.554Z,10.70
2017-10-30T17:04:44.346Z,10.70
2017-10-30T17:07:13.951Z,10.70
2017-10-30T17:09:45.258Z,10.70
2017-10-30T17:12:11.318Z,10.60
2017-10-30T17:14:38.124Z,10.70
2017-10-30T17:17:04.058Z,10.60
2017-10-30T17:19:34.086Z,10.70
2017-10-30T17:22:00.114Z,10.60
2017-10-30T17:24:27.121Z,10.60
2017-10-30T17:26:53.206Z,10.60
2017-10-30T17:29:19.237Z,10.60
2017-10-30T17:31:46.022Z,10.60
2017-10-30T17:34:17.842Z,10.60
2017-10-30T17:36:43.861Z,10.60
2017-10-30T17:39:09.890Z,10.60
2017-10-30T17:41:35.862Z,10.60
2017-10-30T17:44:01.846Z,10.60
2017-10-30T17:46:27.779Z,10.60
2017-10-30T17:49:03.851Z,10.60
2017-10-30T17:51:34.402Z,10.60
2017-10-30T17:54:17.102Z,10.60
2017-10-30T17:56:45.773Z,10.60
2017-10-30T17:59:11.782Z,10.60
2017-10-30T18:01:37.741Z,10.60
2017-10-30T18:04:05.493Z,10.60
2017-10-30T18:06:31.522Z,10.60
2017-10-30T18:08:57.440Z,10.60
2017-10-30T18:11:30.478Z,10.60
2017-10-30T18:14:03.571Z,10.60
2017-10-30T18:16:40.626Z,10.60
2017-10-30T18:19:10.118Z,10.60
2017-10-30T18:21:36.230Z,10.60
2017-10-30T18:24:03.206Z,10.60
2017-10-30T18:26:30.154Z,10.60
2017-10-30T18:29:00.912Z,10.60
2017-10-30T18:31:41.474Z,10.60
2017-10-30T18:34:33.153Z,10.60
2017-10-30T18:39:56.594Z,10.50
2017-10-30T18:42:22.566Z,10.50
2017-10-30T18:44:48.605Z,10.50
2017-10-30T18:47:16.578Z,10.40
2017-10-30T18:49:42.590Z,10.40
2017-10-30T18:52:11.849Z,10.30
2017-10-30T18:54:52.330Z,10.20
2017-10-30T18:57:18.285Z,10.20
2017-10-30T18:59:47.930Z,10.10
2017-10-30T19:02:14.590Z,10.00
2017-10-30T19:04:57.722Z,10.00
2017-10-30T19:07:28.468Z,10.00
2017-10-30T19:09:55.520Z,10.00
2017-10-30T19:12:24.248Z,9.90
2017-10-30T19:14:51.294Z,9.90
2017-10-30T19:17:32.656Z,9.80
2017-10-30T19:22:55.802Z,9.70
2017-10-30T19:25:47.029Z,9.60
2017-10-30T19:28:14.068Z,9.50
2017-10-30T19:30:47.235Z,9.50
2017-10-30T19:33:15.187Z,9.40
2017-10-30T19:35:43.026Z,9.30
2017-10-30T19:41:02.956Z,9.20
2017-10-30T19:43:34.603Z,9.10
2017-10-30T19:46:07.753Z,9.00
2017-10-30T19:51:27.625Z,8.90
2017-10-30T19:53:59.541Z,8.90
2017-10-30T19:56:25.482Z,8.90
2017-10-30T19:58:59.705Z,8.80
2017-10-30T20:01:33.442Z,8.70
2017-10-30T20:04:14.035Z,8.70
2017-10-30T20:06:47.346Z,8.70
2017-10-30T20:09:19.602Z,8.60
2017-10-30T20:11:55.209Z,8.60
2017-10-30T20:14:34.623Z,8.50
2017-10-30T20:17:01.335Z,8.40
2017-10-30T20:19:27.282Z,8.40
2017-10-30T20:21:56.506Z,8.40
2017-10-30T20:24:27.013Z,8.30
2017-10-30T20:27:14.514Z,8.20
2017-10-30T20:32:39.854Z,8.10
2017-10-30T20:35:12.266Z,8.10
2017-10-30T20:37:41.849Z,8.00
2017-10-30T20:40:07.951Z,8.00
2017-10-30T20:42:34.050Z,7.90
2017-10-30T20:45:06.350Z,7.90
2017-10-30T20:47:35.838Z,7.80
2017-10-30T20:50:20.229Z,7.80
2017-10-30T20:53:07.380Z,7.80
2017-10-30T20:55:40.234Z,7.60
2017-10-30T20:58:09.021Z,7.60
2017-10-30T21:00:39.201Z,7.60
2017-10-30T21:03:15.529Z,7.50
2017-10-30T21:05:43.322Z,7.50
2017-10-30T21:08:13.819Z,7.50
2017-10-30T21:10:40.589Z,7.40
2017-10-30T21:13:17.986Z,7.40
2017-10-30T21:15:54.723Z,7.40
2017-10-30T21:18:21.562Z,7.30
2017-10-30T21:20:47.634Z,7.30
2017-10-30T21:23:13.682Z,7.20
2017-10-30T21:25:49.788Z,7.20
2017-10-30T21:28:26.262Z,7.20
2017-10-30T21:30:56.801Z,7.10
2017-10-30T21:33:25.564Z,7.00
2017-10-30T21:36:02.025Z,7.00
2017-10-30T21:38:30.732Z,7.00
2017-10-30T21:40:56.769Z,7.00
2017-10-30T21:43:28.833Z,7.00
2017-10-30T21:46:01.521Z,6.90
2017-10-30T21:48:42.118Z,6.90
2017-10-30T21:51:18.875Z,6.90
2017-10-30T21:53:54.212Z,6.80
2017-10-30T21:56:28.623Z,6.80
2017-10-30T21:58:56.406Z,6.80
2017-10-30T22:01:25.777Z,6.80
2017-10-30T22:03:51.801Z,6.80
2017-10-30T22:06:18.750Z,6.70
2017-10-30T22:08:58.242Z,6.70
2017-10-30T22:11:35.057Z,6.70
2017-10-30T22:14:01.149Z,6.60
2017-10-30T22:16:28.158Z,6.60
2017-10-30T22:18:58.475Z,6.60
2017-10-30T22:21:24.509Z,6.50
2017-10-30T22:23:50.538Z,6.50
2017-10-30T22:26:16.484Z,6.40
2017-10-30T22:28:46.402Z,6.30
2017-10-30T22:31:21.762Z,6.20
2017-10-30T22:33:56.086Z,6.20
2017-10-30T22:36:24.021Z,6.10
2017-10-30T22:39:05.044Z,6.10
2017-10-30T22:41:35.853Z,6.10
2017-10-30T22:44:02.551Z,6.00
2017-10-30T22:46:34.762Z,6.00
2017-10-30T22:49:06.130Z,6.00
2017-10-30T22:51:36.746Z,6.00
2017-10-30T22:54:19.545Z,5.90
2017-10-30T22:56:45.469Z,5.90
2017-10-30T22:59:14.898Z,5.90
2017-10-30T23:01:42.649Z,5.80
2017-10-30T23:04:08.704Z,5.80
2017-10-30T23:06:36.762Z,5.80
2017-10-30T23:09:21.167Z,5.80
2017-10-30T23:11:47.094Z,5.80
2017-10-30T23:14:16.536Z,5.80
2017-10-30T23:16:42.578Z,5.80
2017-10-30T23:19:12.378Z,5.70
2017-10-30T23:21:48.870Z,5.70
2017-10-30T23:24:26.649Z,5.70
2017-10-30T23:26:52.571Z,5.60
2017-10-30T23:29:18.653Z,5.70
2017-10-30T23:31:50.027Z,5.90
2017-10-30T23:34:22.446Z,5.70
2017-10-30T23:36:59.023Z,5.70
2017-10-30T23:39:31.902Z,5.70
2017-10-30T23:41:59.659Z,5.70
2017-10-30T23:44:25.683Z,5.70
2017-10-30T23:46:51.718Z,5.70
2017-10-30T23:49:26.153Z,5.70
2017-10-30T23:51:57.909Z,5.70
2017-10-30T23:54:34.393Z,5.70
2017-10-30T23:57:03.778Z,5.70
2017-10-30T23:59:50.357Z,5.70
